Time;durP1;ratioP1;P1;durP2;ratioP2;P2;SDS_P1;SDS_P2;PMS_P1;PMS_P2;Temp;Humidity;BMP_temperature;BMP_pressure;BME280_temperature;BME280_humidity;BME280_pressure;Samples;Min_cycle;Max_cycle;Signal;HPM_P1;HPM_P2
2022/06/25 00:02:04;;;;;;;5.70;1.90;;;;;12.10;93901.00;;;;7388864;19;20276;-81
2022/06/25 00:07:24;;;;;;;2.30;2.10;;;;;12.30;93891.00;;;;7391421;19;20161;-80
2022/06/25 00:09:52;;;;;;;3.17;1.90;;;;;12.40;93890.00;;;;7391518;19;20129;-80
2022/06/25 00:12:31;;;;;;;2.42;2.20;;;;;12.30;93890.00;;;;7392137;19;20156;-81
2022/06/25 00:15:19;;;;;;;3.60;2.20;;;;;12.40;93894.00;;;;7395208;19;20534;-80
2022/06/25 00:17:53;;;;;;;3.95;2.20;;;;;12.40;93886.00;;;;7398236;19;20678;-80
2022/06/25 00:20:27;;;;;;;3.10;2.10;;;;;12.40;93891.00;;;;7397331;19;20137;-81
2022/06/25 00:22:55;;;;;;;2.30;2.00;;;;;12.40;93902.00;;;;7397402;19;20554;-81
2022/06/25 00:25:22;;;;;;;2.60;2.15;;;;;12.40;93892.00;;;;7398575;19;20141;-81
2022/06/25 00:27:56;;;;;;;2.53;1.95;;;;;12.40;93903.00;;;;7396216;19;20149;-80
2022/06/25 00:30:24;;;;;;;2.75;1.98;;;;;12.30;93909.00;;;;7397130;19;20141;-80
2022/06/25 00:32:52;;;;;;;2.78;2.28;;;;;12.30;93911.00;;;;7398132;19;20148;-80
2022/06/25 00:35:27;;;;;;;2.20;2.00;;;;;12.20;93911.00;;;;7397694;19;20143;-80
2022/06/25 00:37:54;;;;;;;3.05;2.10;;;;;12.20;93920.00;;;;7397431;19;20163;-80
2022/06/25 00:40:22;;;;;;;2.05;1.92;;;;;12.10;93916.00;;;;7396855;19;20628;-80
2022/06/25 00:42:56;;;;;;;3.65;1.67;;;;;12.10;93911.00;;;;7398816;19;20162;-79
2022/06/25 00:45:24;;;;;;;3.10;1.80;;;;;12.10;93912.00;;;;7395818;19;20239;-81
2022/06/25 00:47:52;;;;;;;3.90;2.05;;;;;12.10;93915.00;;;;7398684;19;20154;-78
2022/06/25 00:50:26;;;;;;;4.07;2.30;;;;;12.00;93924.00;;;;7396779;19;20159;-78
2022/06/25 00:52:57;;;;;;;3.47;2.03;;;;;12.00;93919.00;;;;7393869;19;20220;-80
2022/06/25 00:55:30;;;;;;;1.80;1.70;;;;;11.90;93923.00;;;;7396190;19;20208;-78
2022/06/25 00:58:09;;;;;;;1.80;1.70;;;;;11.90;93911.00;;;;7399097;19;20160;-79
2022/06/25 01:00:38;;;;;;;2.45;1.80;;;;;11.80;93914.00;;;;7395312;19;20192;-79
2022/06/25 01:03:12;;;;;;;2.35;1.95;;;;;11.80;93919.00;;;;7395091;19;20136;-82
2022/06/25 01:05:40;;;;;;;2.20;2.00;;;;;11.80;93915.00;;;;7396290;19;20489;-78
2022/06/25 01:08:08;;;;;;;2.47;2.05;;;;;11.80;93912.00;;;;7396616;19;20486;-80
2022/06/25 01:10:44;;;;;;;3.47;2.08;;;;;11.80;93915.00;;;;7394074;19;20192;-80
2022/06/25 01:13:13;;;;;;;3.00;1.80;;;;;11.70;93916.00;;;;7398983;19;20549;-80
2022/06/25 01:15:40;;;;;;;1.88;1.77;;;;;11.70;93915.00;;;;7392983;19;20256;-79
2022/06/25 01:18:15;;;;;;;2.05;1.77;;;;;11.70;93919.00;;;;7397812;19;20167;-76
2022/06/25 01:20:42;;;;;;;4.18;2.00;;;;;11.70;93922.00;;;;7396443;19;20150;-76
2022/06/25 01:23:11;;;;;;;2.28;2.08;;;;;11.80;93922.00;;;;7393404;19;20137;-76
2022/06/25 01:25:45;;;;;;;1.92;1.83;;;;;11.80;93926.00;;;;7393365;19;20124;-76
2022/06/25 01:28:13;;;;;;;2.33;2.00;;;;;11.80;93920.00;;;;7396765;19;20152;-78
2022/06/25 01:30:40;;;;;;;4.47;2.40;;;;;11.70;93908.00;;;;7395637;19;20125;-77
2022/06/25 01:33:14;;;;;;;3.63;2.20;;;;;11.80;93909.00;;;;7393719;19;20125;-80
2022/06/25 01:35:42;;;;;;;2.47;2.08;;;;;11.80;93909.00;;;;7393963;19;20141;-79
2022/06/25 01:38:09;;;;;;;2.30;2.10;;;;;11.90;93911.00;;;;7397346;19;20208;-80
2022/06/25 01:40:43;;;;;;;2.22;2.05;;;;;12.00;93910.00;;;;7386352;19;20148;-80
2022/06/25 01:43:11;;;;;;;2.97;2.20;;;;;12.10;93915.00;;;;7394802;19;20591;-80
2022/06/25 01:45:38;;;;;;;3.03;1.90;;;;;11.90;93920.00;;;;7390584;19;20179;-80
2022/06/25 01:48:12;;;;;;;2.10;2.00;;;;;11.90;93911.00;;;;7395673;19;20175;-80
2022/06/25 01:50:40;;;;;;;7.25;2.03;;;;;11.80;93926.00;;;;7393717;19;20171;-79
2022/06/25 01:53:08;;;;;;;2.40;1.95;;;;;11.70;93922.00;;;;7392528;19;20117;-79
2022/06/25 01:55:43;;;;;;;2.42;2.03;;;;;11.60;93922.00;;;;7393170;19;20633;-80
2022/06/25 01:58:10;;;;;;;3.22;2.00;;;;;11.60;93925.00;;;;7393032;19;20605;-77
2022/06/25 02:00:38;;;;;;;2.30;1.95;;;;;11.50;93928.00;;;;7394696;19;20275;-77
2022/06/25 02:03:19;;;;;;;1.70;1.60;;;;;11.40;93924.00;;;;7392271;19;20137;-79
2022/06/25 02:05:58;;;;;;;2.55;1.88;;;;;11.50;93933.00;;;;7392400;19;20148;-79
2022/06/25 02:08:35;;;;;;;2.70;2.10;;;;;11.60;93931.00;;;;7392906;19;20158;-79
2022/06/25 02:11:05;;;;;;;3.55;2.22;;;;;11.70;93921.00;;;;7393807;19;20129;-77
2022/06/25 02:13:46;;;;;;;2.30;2.10;;;;;11.60;93929.00;;;;7393687;19;20129;-77
2022/06/25 02:16:20;;;;;;;3.63;1.98;;;;;11.60;93925.00;;;;7391332;19;20167;-78
2022/06/25 02:18:54;;;;;;;2.42;1.70;;;;;11.50;93931.00;;;;7396995;19;20147;-77
2022/06/25 02:21:22;;;;;;;1.70;1.60;;;;;11.50;93934.00;;;;7392277;19;20133;-77
2022/06/25 02:23:49;;;;;;;2.15;1.95;;;;;11.50;93934.00;;;;7389719;19;20147;-78
2022/06/25 02:26:23;;;;;;;3.53;2.00;;;;;11.50;93928.00;;;;7391713;19;20141;-80
2022/06/25 02:28:51;;;;;;;2.58;1.98;;;;;11.40;93939.00;;;;7394134;19;20630;-78
2022/06/25 02:31:18;;;;;;;2.13;2.00;;;;;11.50;93935.00;;;;7391104;19;20662;-79
2022/06/25 02:33:52;;;;;;;5.10;2.20;;;;;11.50;93947.00;;;;7391673;19;20575;-79
2022/06/25 02:36:20;;;;;;;7.10;2.40;;;;;11.60;93945.00;;;;7391570;19;20137;-77
2022/06/25 02:38:47;;;;;;;2.45;2.25;;;;;11.50;93944.00;;;;7394854;19;20188;-78
2022/06/25 02:41:21;;;;;;;3.45;2.47;;;;;11.50;93945.00;;;;7391456;19;20482;-80
2022/06/25 02:43:49;;;;;;;3.53;2.53;;;;;11.60;93940.00;;;;7392285;19;20646;-79
2022/06/25 02:46:16;;;;;;;6.68;2.15;;;;;11.60;93946.00;;;;7388602;19;20203;-77
2022/06/25 02:48:50;;;;;;;2.53;2.33;;;;;11.50;93941.00;;;;7393348;19;20156;-77
2022/06/25 02:51:18;;;;;;;2.30;2.10;;;;;11.50;93943.00;;;;7392072;19;20125;-78
2022/06/25 02:53:46;;;;;;;3.05;2.00;;;;;11.50;93945.00;;;;7389340;19;20764;-78
2022/06/25 02:59:06;;;;;;;2.67;2.20;;;;;11.40;93947.00;;;;7391643;19;20621;-78
2022/06/25 03:01:40;;;;;;;5.63;2.13;;;;;11.30;93944.00;;;;7390825;19;20133;-77
2022/06/25 03:04:08;;;;;;;3.33;2.20;;;;;11.40;93947.00;;;;7391445;19;20129;-78
2022/06/25 03:06:36;;;;;;;3.80;2.08;;;;;11.40;93946.00;;;;7390585;19;20624;-78
2022/06/25 03:09:10;;;;;;;2.25;2.05;;;;;11.40;93944.00;;;;7393888;19;20147;-78
2022/06/25 03:11:38;;;;;;;2.90;2.38;;;;;11.40;93939.00;;;;7388307;19;20160;-78
2022/06/25 03:14:06;;;;;;;2.72;2.50;;;;;11.40;93941.00;;;;7389523;19;20133;-77
2022/06/25 03:16:47;;;;;;;2.45;2.17;;;;;11.50;93938.00;;;;7392343;19;20141;-78
2022/06/25 03:19:14;;;;;;;6.53;2.30;;;;;11.40;93930.00;;;;7389909;19;20136;-78
2022/06/25 03:21:49;;;;;;;2.65;2.28;;;;;11.30;93928.00;;;;7390151;19;20658;-77
2022/06/25 03:24:18;;;;;;;4.30;2.50;;;;;11.40;93930.00;;;;7391173;19;20591;-77
2022/06/25 03:26:45;;;;;;;2.50;2.30;;;;;11.30;93928.00;;;;7389567;19;20476;-77
2022/06/25 03:29:19;;;;;;;4.38;2.20;;;;;11.30;93937.00;;;;7388931;19;20129;-78
2022/06/25 03:31:47;;;;;;;2.65;2.45;;;;;11.30;93933.00;;;;7390494;19;20157;-78
2022/06/25 03:34:14;;;;;;;4.43;2.20;;;;;11.30;93934.00;;;;7389920;19;20916;-77
2022/06/25 03:36:49;;;;;;;2.72;2.20;;;;;11.30;93932.00;;;;7390330;19;20132;-77
2022/06/25 03:39:17;;;;;;;3.95;2.30;;;;;11.30;93938.00;;;;7391917;19;20125;-79
2022/06/25 03:41:44;;;;;;;4.13;2.47;;;;;11.40;93940.00;;;;7389648;19;20596;-80
2022/06/25 03:44:18;;;;;;;5.00;2.50;;;;;11.40;93941.00;;;;7386654;19;20151;-78
2022/06/25 03:46:46;;;;;;;3.05;2.47;;;;;11.50;93942.00;;;;7389998;19;20592;-78
2022/06/25 03:49:14;;;;;;;2.70;2.50;;;;;11.50;93936.00;;;;7397486;19;20590;-78
2022/06/25 03:51:49;;;;;;;2.58;2.38;;;;;11.50;93940.00;;;;7396675;19;20183;-78
2022/06/25 03:54:17;;;;;;;3.97;2.35;;;;;11.50;93949.00;;;;7396871;19;20141;-77
2022/06/25 03:56:45;;;;;;;2.47;2.28;;;;;11.50;93950.00;;;;7395923;19;20145;-78
2022/06/25 03:59:18;;;;;;;2.85;2.50;;;;;11.70;93954.00;;;;7396481;19;20129;-81
2022/06/25 04:01:46;;;;;;;3.17;2.50;;;;;11.80;93954.00;;;;7396942;19;20125;-79
2022/06/25 04:04:14;;;;;;;4.70;2.20;;;;;11.80;93951.00;;;;7396619;19;20137;-77
2022/06/25 04:06:48;;;;;;;3.65;2.63;;;;;11.70;93954.00;;;;7397505;19;20139;-78
2022/06/25 04:09:16;;;;;;;3.65;2.50;;;;;11.80;93954.00;;;;7396155;19;20159;-78
2022/06/25 04:11:43;;;;;;;2.47;2.28;;;;;11.90;93956.00;;;;7394591;19;20168;-79
2022/06/25 04:14:31;;;;;;;4.70;2.33;;;;;11.90;93958.00;;;;7394547;19;20538;-78
2022/06/25 04:17:06;;;;;;;2.83;2.35;;;;;12.00;93959.00;;;;7395589;19;20609;-79
2022/06/25 04:19:40;;;;;;;2.67;2.42;;;;;12.00;93968.00;;;;7396763;19;20124;-78
2022/06/25 04:22:09;;;;;;;5.35;2.90;;;;;12.10;93968.00;;;;7396721;19;20146;-78
2022/06/25 04:24:39;;;;;;;2.70;2.50;;;;;12.20;93972.00;;;;7396026;19;20855;-79
2022/06/25 04:29:03;;;;;;;2.50;2.28;;;;;12.20;93978.00;;;;7394663;19;20548;-79
2022/06/25 04:30:02;;;;;;;2.58;2.38;;;;;12.30;93978.00;;;;7395794;19;20129;-78
2022/06/25 04:32:35;;;;;;;3.88;2.38;;;;;12.40;93971.00;;;;7396191;19;20121;-78
2022/06/25 04:35:06;;;;;;;2.90;2.60;;;;;12.50;93968.00;;;;7395379;19;20537;-79
2022/06/25 04:37:33;;;;;;;3.40;2.78;;;;;12.60;93980.00;;;;7396502;19;20611;-79
2022/06/25 04:40:08;;;;;;;3.35;3.05;;;;;12.80;93976.00;;;;7395198;19;20137;-79
2022/06/25 04:42:36;;;;;;;3.83;2.78;;;;;13.00;93978.00;;;;7397760;19;20152;-78
2022/06/25 04:45:04;;;;;;;4.35;2.88;;;;;13.10;93982.00;;;;7395083;19;20216;-78
2022/06/25 04:47:38;;;;;;;5.55;2.67;;;;;13.20;93971.00;;;;7401285;19;20727;-79
2022/06/25 04:50:07;;;;;;;2.75;2.55;;;;;13.40;93972.00;;;;7394225;19;20125;-79
2022/06/25 04:52:35;;;;;;;5.38;3.05;;;;;13.50;93973.00;;;;7397967;19;20153;-77
2022/06/25 04:55:09;;;;;;;4.72;3.08;;;;;13.60;93975.00;;;;7396079;19;20594;-78
2022/06/25 04:57:37;;;;;;;7.65;2.65;;;;;13.80;93978.00;;;;7395945;19;20153;-79
2022/06/25 05:00:05;;;;;;;2.72;2.42;;;;;13.90;93971.00;;;;7389267;19;20208;-78
2022/06/25 05:02:39;;;;;;;3.65;2.50;;;;;14.10;93965.00;;;;7394068;19;20148;-78
2022/06/25 05:05:08;;;;;;;3.45;2.60;;;;;14.20;93965.00;;;;7392403;19;20145;-77
2022/06/25 05:07:36;;;;;;;2.63;2.42;;;;;14.30;93975.00;;;;7397493;19;20133;-78
2022/06/25 05:10:10;;;;;;;3.85;2.50;;;;;14.50;93967.00;;;;7393327;19;20167;-79
2022/06/25 05:15:37;;;;;;;3.97;2.20;;;;;14.80;93968.00;;;;7393492;19;20155;-79
2022/06/25 05:18:06;;;;;;;2.78;2.58;;;;;14.90;93976.00;;;;7399645;19;20136;-78
2022/06/25 05:20:42;;;;;;;2.20;2.00;;;;;15.00;93971.00;;;;7394264;19;20132;-77
2022/06/25 05:23:10;;;;;;;3.60;2.20;;;;;15.10;93977.00;;;;7399418;19;20153;-79
2022/06/25 05:25:39;;;;;;;5.13;2.20;;;;;15.20;93979.00;;;;7395809;19;20486;-78
2022/06/25 05:28:12;;;;;;;2.45;2.10;;;;;15.30;93974.00;;;;7399785;19;20677;-79
2022/06/25 05:30:40;;;;;;;2.50;2.30;;;;;15.50;93968.00;;;;7390952;19;20232;-79
2022/06/25 05:33:08;;;;;;;2.40;2.20;;;;;15.70;93982.00;;;;7399434;19;20139;-78
2022/06/25 05:35:42;;;;;;;3.70;2.13;;;;;15.80;93986.00;;;;7393247;19;20140;-79
2022/06/25 05:38:10;;;;;;;4.07;1.67;;;;;15.80;93995.00;;;;7394639;19;20138;-79
2022/06/25 05:40:38;;;;;;;2.28;1.80;;;;;15.80;93991.00;;;;7394283;19;20133;-77
2022/06/25 05:43:11;;;;;;;1.90;1.80;;;;;15.80;93996.00;;;;7392523;19;20521;-77
2022/06/25 05:45:39;;;;;;;3.25;1.92;;;;;15.80;93995.00;;;;7392145;19;20133;-76
2022/06/25 05:48:06;;;;;;;2.17;1.50;;;;;15.80;94003.00;;;;7387075;19;20129;-76
2022/06/25 05:50:40;;;;;;;3.03;1.65;;;;;16.00;93997.00;;;;7396263;19;20128;-76
2022/06/25 05:53:08;;;;;;;1.92;1.73;;;;;16.10;94002.00;;;;7398253;19;20153;-76
2022/06/25 05:55:36;;;;;;;2.15;1.80;;;;;16.20;94002.00;;;;7396666;19;20141;-76
2022/06/25 05:58:09;;;;;;;2.10;1.60;;;;;16.10;94013.00;;;;7395331;19;20155;-77
2022/06/25 06:00:37;;;;;;;4.00;1.90;;;;;16.40;94010.00;;;;7395634;19;20635;-75
2022/06/25 06:03:11;;;;;;;2.47;1.92;;;;;16.40;94009.00;;;;7396495;19;20161;-76
2022/06/25 06:05:45;;;;;;;2.60;1.70;;;;;16.30;94004.00;;;;7395653;19;20152;-80
2022/06/25 06:08:16;;;;;;;2.65;1.80;;;;;16.40;94007.00;;;;7393745;19;20607;-79
2022/06/25 06:10:43;;;;;;;2.60;1.80;;;;;16.50;94000.00;;;;7390334;19;20176;-79
2022/06/25 06:13:17;;;;;;;2.20;2.00;;;;;16.70;94008.00;;;;7395350;19;20133;-79
2022/06/25 06:15:51;;;;;;;3.35;2.30;;;;;17.00;94011.00;;;;7394219;19;20675;-79
2022/06/25 06:18:25;;;;;;;3.90;2.22;;;;;17.00;94017.00;;;;7395332;19;20156;-81
2022/06/25 06:20:55;;;;;;;5.80;1.80;;;;;17.10;94017.00;;;;7393191;19;20159;-78
2022/06/25 06:23:23;;;;;;;2.75;1.70;;;;;17.20;94022.00;;;;7396273;19;20160;-79
2022/06/25 06:25:57;;;;;;;3.38;1.70;;;;;17.20;94014.00;;;;7396535;19;20159;-78
2022/06/25 06:28:25;;;;;;;1.95;1.83;;;;;17.30;94024.00;;;;7390212;19;20147;-78
2022/06/25 06:30:52;;;;;;;3.15;1.70;;;;;17.40;94020.00;;;;7390554;19;20160;-77
2022/06/25 06:33:26;;;;;;;4.50;2.30;;;;;17.70;94018.00;;;;7394896;19;20610;-78
2022/06/25 06:35:54;;;;;;;1.98;1.70;;;;;17.80;94017.00;;;;7395011;19;20546;-78
2022/06/25 06:38:21;;;;;;;4.32;1.70;;;;;18.10;94016.00;;;;7395302;19;20205;-80
2022/06/25 06:40:55;;;;;;;2.25;1.92;;;;;18.30;94022.00;;;;7392681;19;20144;-79
2022/06/25 06:43:23;;;;;;;1.60;1.48;;;;;18.40;94017.00;;;;7392737;19;20889;-78
2022/06/25 06:45:50;;;;;;;1.73;1.60;;;;;18.40;94018.00;;;;7390529;19;20160;-78
2022/06/25 06:48:24;;;;;;;3.75;1.60;;;;;18.50;94015.00;;;;7390609;19;20156;-78
2022/06/25 06:50:52;;;;;;;2.95;2.00;;;;;18.50;94020.00;;;;7393989;19;20153;-78
2022/06/25 06:53:21;;;;;;;3.72;1.63;;;;;18.70;94012.00;;;;7396136;19;20157;-77
2022/06/25 06:55:55;;;;;;;2.85;1.50;;;;;18.70;94012.00;;;;7396971;19;20152;-78
2022/06/25 06:58:23;;;;;;;4.90;1.88;;;;;18.70;94014.00;;;;7397621;19;20165;-77
2022/06/25 07:00:51;;;;;;;2.40;1.58;;;;;18.70;94002.00;;;;7394760;19;20189;-78
2022/06/25 07:03:25;;;;;;;3.35;1.63;;;;;18.80;94015.00;;;;7395115;19;20571;-77
2022/06/25 07:05:57;;;;;;;1.50;1.40;;;;;18.50;94015.00;;;;7394069;19;20149;-78
2022/06/25 07:08:25;;;;;;;2.97;1.70;;;;;18.30;94014.00;;;;7398662;19;20140;-78
2022/06/25 07:11:27;;;;;;;3.28;1.58;;;;;18.40;94013.00;;;;7391198;19;20630;-76
2022/06/25 07:14:17;;;;;;;2.75;1.77;;;;;18.90;94014.00;;;;7394448;19;20191;-76
2022/06/25 07:17:25;;;;;;;4.07;1.90;;;;;19.10;94013.00;;;;7388563;19;20166;-76
2022/06/25 07:20:01;;;;;;;5.78;1.80;;;;;19.20;94016.00;;;;7390396;19;20148;-75
2022/06/25 07:22:36;;;;;;;1.88;1.77;;;;;19.60;94005.00;;;;7392830;19;20599;-77
2022/06/25 07:25:06;;;;;;;2.78;1.92;;;;;19.90;94018.00;;;;7396912;19;20132;-76
2022/06/25 07:27:34;;;;;;;1.98;1.77;;;;;20.10;94007.00;;;;7395292;19;20172;-75
2022/06/25 07:30:08;;;;;;;2.13;1.70;;;;;20.20;93999.00;;;;7392309;19;20144;-75
2022/06/25 07:32:45;;;;;;;3.22;1.80;;;;;20.40;93990.00;;;;7395369;19;20520;-75
2022/06/25 07:35:23;;;;;;;3.55;1.60;;;;;20.80;93983.00;;;;7392108;19;20160;-75
2022/06/25 07:38:02;;;;;;;1.98;1.77;;;;;21.10;93986.00;;;;7386960;19;20156;-78
2022/06/25 07:40:36;;;;;;;1.63;1.50;;;;;21.60;93987.00;;;;7386596;19;20156;-76
2022/06/25 07:43:03;;;;;;;3.05;2.00;;;;;21.70;93983.00;;;;7390272;19;20156;-76
2022/06/25 07:45:32;;;;;;;3.58;1.70;;;;;22.00;93974.00;;;;7390499;19;20192;-75
2022/06/25 07:48:09;;;;;;;3.97;2.00;;;;;21.70;93985.00;;;;7386712;19;20139;-77
2022/06/25 07:53:30;;;;;;;2.28;1.92;;;;;21.50;93985.00;;;;7392087;19;20172;-73
2022/06/25 07:55:58;;;;;;;2.17;1.65;;;;;21.00;93982.00;;;;7385891;19;20152;-75
2022/06/25 07:58:26;;;;;;;2.20;1.85;;;;;20.60;93986.00;;;;7383893;19;20152;-76
2022/06/25 08:04:39;;;;;;;2.95;1.90;;;;;20.50;93987.00;;;;7384099;19;20148;-76
2022/06/25 08:07:12;;;;;;;2.53;1.90;;;;;20.80;94000.00;;;;7390486;19;20153;-75
2022/06/25 08:09:40;;;;;;;4.32;1.73;;;;;20.50;93995.00;;;;7390306;19;20141;-76
2022/06/25 08:12:08;;;;;;;3.40;1.88;;;;;20.30;94014.00;;;;7391643;19;20152;-75
2022/06/25 08:14:58;;;;;;;5.03;2.35;;;;;20.30;94013.00;;;;7388026;19;20158;-76
2022/06/25 08:17:34;;;;;;;1.70;1.60;;;;;20.00;94008.00;;;;7392340;19;20137;-75
2022/06/25 08:20:08;;;;;;;5.65;2.00;;;;;20.00;94005.00;;;;7390658;19;20538;-76
2022/06/25 08:22:35;;;;;;;4.10;2.60;;;;;20.30;93991.00;;;;7392452;19;20168;-75
2022/06/25 08:25:05;;;;;;;4.72;2.15;;;;;20.70;93998.00;;;;7390586;19;20152;-75
2022/06/25 08:27:50;;;;;;;3.75;2.00;;;;;20.90;93976.00;;;;7392091;19;20143;-75
2022/06/25 08:30:22;;;;;;;1.63;1.52;;;;;21.00;93995.00;;;;7389025;19;20128;-75
2022/06/25 08:32:59;;;;;;;5.82;1.80;;;;;20.50;94002.00;;;;7390548;19;20136;-74
2022/06/25 08:35:27;;;;;;;2.40;1.80;;;;;20.10;94001.00;;;;7396808;19;20153;-73
2022/06/25 08:37:56;;;;;;;2.10;1.90;;;;;20.10;94002.00;;;;7399360;19;20208;-74
2022/06/25 08:40:30;;;;;;;2.20;1.67;;;;;19.90;94005.00;;;;7398691;19;20148;-75
2022/06/25 08:42:58;;;;;;;2.92;2.25;;;;;20.00;94002.00;;;;7396983;19;20135;-73
2022/06/25 08:45:26;;;;;;;2.35;2.08;;;;;20.10;94006.00;;;;7397680;19;20141;-76
2022/06/25 08:48:01;;;;;;;3.10;2.15;;;;;20.20;93986.00;;;;7399529;19;20136;-75
2022/06/25 08:50:32;;;;;;;3.53;1.98;;;;;20.60;94012.00;;;;7399093;19;20205;-75
2022/06/25 08:53:00;;;;;;;2.40;1.85;;;;;20.60;94019.00;;;;7396467;19;20148;-74
2022/06/25 08:55:39;;;;;;;2.67;1.98;;;;;20.10;94011.00;;;;7396885;19;20143;-75
2022/06/25 08:58:09;;;;;;;3.83;2.05;;;;;19.80;94015.00;;;;7396962;19;20169;-75
2022/06/25 09:00:47;;;;;;;4.10;2.00;;;;;19.60;94010.00;;;;7392456;19;20163;-78
2022/06/25 09:03:15;;;;;;;3.30;2.03;;;;;19.50;94006.00;;;;7396629;19;20148;-75
2022/06/25 09:05:44;;;;;;;3.67;1.85;;;;;19.40;94005.00;;;;7396753;19;20145;-74
2022/06/25 09:08:17;;;;;;;3.38;1.85;;;;;19.20;94006.00;;;;7395265;19;20152;-74
2022/06/25 09:10:51;;;;;;;3.90;2.50;;;;;19.10;94011.00;;;;7392845;19;20169;-74
2022/06/25 09:13:25;;;;;;;3.10;2.10;;;;;18.90;94006.00;;;;7398781;19;20140;-74
2022/06/25 09:16:07;;;;;;;9.15;1.80;;;;;18.80;94006.00;;;;7395154;19;20156;-75
2022/06/25 09:18:48;;;;;;;3.58;2.10;;;;;18.60;94013.00;;;;7394821;19;20161;-75
2022/06/25 09:21:15;;;;;;;3.15;1.92;;;;;18.50;94011.00;;;;7394570;19;20155;-75
2022/06/25 09:24:00;;;;;;;4.05;2.15;;;;;18.40;94020.00;;;;7396771;19;20156;-75
2022/06/25 09:26:28;;;;;;;3.25;2.28;;;;;18.50;94011.00;;;;7397704;19;20148;-75
2022/06/25 09:29:02;;;;;;;2.15;1.98;;;;;18.70;94012.00;;;;7396802;19;20168;-75
2022/06/25 09:31:37;;;;;;;10.10;3.88;;;;;18.80;94008.00;;;;7391949;19;20674;-75
2022/06/25 09:34:11;;;;;;;6.68;4.78;;;;;18.80;94007.00;;;;7396248;19;20212;-75
2022/06/25 09:36:39;;;;;;;4.10;3.22;;;;;18.90;94003.00;;;;7398162;19;20144;-76
2022/06/25 09:39:07;;;;;;;3.00;2.42;;;;;19.00;93983.00;;;;7398286;19;20156;-75
2022/06/25 09:41:56;;;;;;;6.25;2.55;;;;;20.20;93963.00;;;;7398024;19;20462;-75
2022/06/25 09:44:24;;;;;;;2.45;2.00;;;;;22.00;93983.00;;;;7396374;19;20156;-75
2022/06/25 09:47:01;;;;;;;3.83;1.95;;;;;22.20;93956.00;;;;7393796;19;20491;-75
2022/06/25 09:49:29;;;;;;;2.60;1.95;;;;;23.10;93953.00;;;;7397430;19;20566;-75
2022/06/25 09:52:01;;;;;;;2.58;1.98;;;;;23.80;93954.00;;;;7393940;19;20499;-75
2022/06/25 09:54:35;;;;;;;1.98;1.80;;;;;24.30;93941.00;;;;7396278;19;20527;-75
2022/06/25 09:57:03;;;;;;;3.63;1.75;;;;;24.50;93936.00;;;;7395395;19;20147;-75
2022/06/25 09:59:32;;;;;;;4.63;2.00;;;;;24.50;93941.00;;;;7397057;19;20612;-73
2022/06/25 10:02:07;;;;;;;3.05;1.70;;;;;24.90;93937.00;;;;7393113;19;20144;-77
2022/06/25 10:04:34;;;;;;;2.97;1.38;;;;;24.90;93934.00;;;;7398611;19;20746;-76
2022/06/25 10:07:09;;;;;;;6.00;1.60;;;;;25.00;93940.00;;;;7395046;19;20150;-73
2022/06/25 10:09:45;;;;;;;3.00;1.50;;;;;24.40;93938.00;;;;7395306;19;20125;-74
2022/06/25 10:12:16;;;;;;;3.97;1.33;;;;;23.60;93940.00;;;;7393222;19;20176;-74
2022/06/25 10:14:44;;;;;;;3.33;1.40;;;;;23.30;93943.00;;;;7391738;19;20147;-76
2022/06/25 10:17:24;;;;;;;1.45;1.35;;;;;23.90;93946.00;;;;7394204;19;20682;-76
2022/06/25 10:19:59;;;;;;;1.30;1.20;;;;;23.70;93940.00;;;;7395141;19;20141;-75
2022/06/25 10:22:37;;;;;;;5.13;1.55;;;;;24.00;93946.00;;;;7395630;19;20145;-76
2022/06/25 10:25:10;;;;;;;2.10;1.63;;;;;24.00;93938.00;;;;7392876;19;20148;-73
2022/06/25 10:27:49;;;;;;;2.35;1.23;;;;;24.40;93942.00;;;;7395298;19;20933;-75
2022/06/25 10:30:56;;;;;;;3.30;1.65;;;;;24.50;93948.00;;;;7395437;19;20159;-76
2022/06/25 10:33:51;;;;;;;5.95;2.10;;;;;24.60;93948.00;;;;7390328;19;20137;-77
2022/06/25 10:36:37;;;;;;;2.70;1.38;;;;;25.10;93942.00;;;;7392892;19;20951;-76
2022/06/25 10:39:27;;;;;;;1.45;1.35;;;;;25.00;93929.00;;;;7393268;19;20145;-73
2022/06/25 10:45:15;;;;;;;3.33;1.83;;;;;24.90;93953.00;;;;7393680;19;20167;-76
2022/06/25 10:47:46;;;;;;;2.75;1.48;;;;;23.90;93943.00;;;;7395570;19;20582;-74
2022/06/25 10:50:23;;;;;;;3.28;1.70;;;;;24.40;93933.00;;;;7395248;19;20601;-77
2022/06/25 10:53:03;;;;;;;1.70;1.50;;;;;25.00;93915.00;;;;7389339;19;20496;-75
2022/06/25 10:55:46;;;;;;;3.28;1.40;;;;;25.50;93920.00;;;;7393266;19;20210;-75
2022/06/25 10:58:17;;;;;;;4.97;1.42;;;;;25.50;93914.00;;;;7394199;19;20148;-75
2022/06/25 11:00:53;;;;;;;3.97;1.88;;;;;25.60;93923.00;;;;7394124;19;20152;-75
2022/06/25 11:03:30;;;;;;;2.47;1.40;;;;;25.00;93912.00;;;;7391799;19;21052;-75
2022/06/25 11:06:23;;;;;;;2.25;1.80;;;;;25.60;93912.00;;;;7392651;19;20745;-77
2022/06/25 11:08:52;;;;;;;4.38;1.70;;;;;25.60;93913.00;;;;7391062;19;20156;-75
2022/06/25 11:11:32;;;;;;;1.77;1.60;;;;;25.50;93909.00;;;;7391555;19;20182;-74
2022/06/25 11:14:04;;;;;;;4.78;1.77;;;;;25.80;93913.00;;;;7392193;19;20219;-76
2022/06/25 11:16:45;;;;;;;2.13;1.55;;;;;26.30;93902.00;;;;7392200;19;20165;-77
2022/06/25 11:19:20;;;;;;;3.33;1.50;;;;;26.40;93911.00;;;;7391532;19;20144;-74
2022/06/25 11:21:54;;;;;;;2.00;1.35;;;;;24.80;93924.00;;;;7394408;19;20591;-76
2022/06/25 11:24:23;;;;;;;1.67;1.40;;;;;23.90;93933.00;;;;7393115;19;20144;-75
2022/06/25 11:29:53;;;;;;;2.65;1.60;;;;;25.20;93902.00;;;;7392004;19;20155;-76
2022/06/25 11:32:23;;;;;;;5.18;1.50;;;;;24.90;93901.00;;;;7392456;19;20140;-76
2022/06/25 11:34:52;;;;;;;1.67;1.40;;;;;24.40;93925.00;;;;7392729;19;20124;-75
2022/06/25 11:37:29;;;;;;;1.77;1.52;;;;;24.00;93913.00;;;;7392404;19;20499;-74
2022/06/25 11:39:57;;;;;;;2.30;1.73;;;;;25.10;93909.00;;;;7391668;19;20161;-73
2022/06/25 11:42:25;;;;;;;4.30;1.80;;;;;25.80;93926.00;;;;7392636;19;20638;-75
2022/06/25 11:45:00;;;;;;;1.42;1.30;;;;;25.00;93891.00;;;;7393655;19;20137;-77
2022/06/25 11:47:29;;;;;;;1.42;1.33;;;;;25.40;93893.00;;;;7391663;19;20153;-74
2022/06/25 11:49:59;;;;;;;2.13;1.55;;;;;25.40;93913.00;;;;7391645;19;20113;-74
2022/06/25 11:52:34;;;;;;;3.83;1.42;;;;;24.70;93931.00;;;;7391550;19;20590;-74
2022/06/25 11:55:02;;;;;;;2.50;1.50;;;;;24.10;93922.00;;;;7393740;19;20193;-75
2022/06/25 11:57:34;;;;;;;2.88;1.38;;;;;24.00;93919.00;;;;7391054;19;20157;-74
2022/06/25 12:00:13;;;;;;;1.83;1.38;;;;;23.90;93912.00;;;;7391353;19;20208;-74
2022/06/25 12:02:42;;;;;;;4.72;1.58;;;;;25.10;93891.00;;;;7393478;19;20162;-77
2022/06/25 12:05:17;;;;;;;2.72;1.60;;;;;26.60;93892.00;;;;7390752;19;20149;-76
2022/06/25 12:07:45;;;;;;;2.58;1.35;;;;;26.50;93885.00;;;;7391173;19;20149;-75
2022/06/25 12:10:13;;;;;;;2.38;1.42;;;;;25.20;93906.00;;;;7398968;19;20543;-74
2022/06/25 12:12:48;;;;;;;3.53;1.50;;;;;24.20;93902.00;;;;7395579;19;20142;-74
2022/06/25 12:15:23;;;;;;;2.72;1.35;;;;;24.90;93896.00;;;;7397026;19;20176;-75
2022/06/25 12:18:05;;;;;;;2.63;1.50;;;;;25.20;93887.00;;;;7399040;19;20637;-75
2022/06/25 12:20:33;;;;;;;1.95;1.50;;;;;25.00;93879.00;;;;7399739;19;20152;-77
2022/06/25 12:23:07;;;;;;;1.98;1.60;;;;;24.80;93873.00;;;;7396518;19;20729;-75
2022/06/25 12:25:35;;;;;;;4.80;1.50;;;;;25.40;93879.00;;;;7398977;19;20152;-75
2022/06/25 12:28:04;;;;;;;1.98;1.33;;;;;26.10;93879.00;;;;7398968;19;20576;-77
2022/06/25 12:30:38;;;;;;;2.22;1.33;;;;;26.40;93876.00;;;;7400204;19;20597;-73
2022/06/25 12:33:17;;;;;;;2.63;1.30;;;;;26.60;93875.00;;;;7392756;19;20163;-76
2022/06/25 12:35:55;;;;;;;3.13;1.45;;;;;26.50;93869.00;;;;7400569;19;20595;-77
2022/06/25 12:38:22;;;;;;;1.85;1.40;;;;;26.70;93869.00;;;;7399223;19;20152;-77
2022/06/25 12:40:51;;;;;;;3.65;1.70;;;;;27.20;93862.00;;;;7397295;19;20145;-77
2022/06/25 12:43:47;;;;;;;2.63;1.35;;;;;27.20;93862.00;;;;7396054;19;20606;-77
2022/06/25 12:46:19;;;;;;;1.38;1.27;;;;;27.10;93862.00;;;;7400022;19;20216;-75
2022/06/25 12:49:01;;;;;;;1.48;1.27;;;;;27.40;93859.00;;;;7399418;19;20598;-74
2022/06/25 12:51:28;;;;;;;1.95;1.38;;;;;27.60;93861.00;;;;7398688;19;20140;-75
2022/06/25 12:54:02;;;;;;;2.88;1.50;;;;;27.40;93860.00;;;;7397405;19;20587;-74
2022/06/25 12:56:30;;;;;;;1.73;1.30;;;;;27.60;93851.00;;;;7397524;19;20695;-77
2022/06/25 12:58:58;;;;;;;2.38;1.45;;;;;27.80;93851.00;;;;7395684;19;20164;-77
2022/06/25 13:01:33;;;;;;;1.77;1.50;;;;;26.80;93865.00;;;;7396437;19;20479;-75
2022/06/25 13:04:01;;;;;;;2.28;1.40;;;;;27.00;93851.00;;;;7396569;19;20617;-75
2022/06/25 13:06:28;;;;;;;5.15;1.30;;;;;27.50;93853.00;;;;7394957;19;20641;-75